createdAt,value
2023-01-10T00:00:56.733Z,4.43
2023-01-10T00:03:26.557Z,4.43
2023-01-10T00:05:56.271Z,4.46
2023-01-10T00:08:26.102Z,4.43
2023-01-10T00:10:55.854Z,4.45
2023-01-10T00:13:25.635Z,4.54
2023-01-10T00:15:55.823Z,4.48
2023-01-10T00:18:24.978Z,4.62
2023-01-10T00:20:52.674Z,4.54
2023-01-10T00:23:22.844Z,4.54
2023-01-10T00:25:52.870Z,4.52
2023-01-10T00:28:23.823Z,4.57
2023-01-10T00:31:01.884Z,4.52
2023-01-10T00:33:33.179Z,4.58
2023-01-10T00:36:07.844Z,4.52
2023-01-10T00:38:37.948Z,4.59
2023-01-10T00:41:27.571Z,4.61
2023-01-10T00:43:57.509Z,4.65
2023-01-10T00:46:27.783Z,4.70
2023-01-10T00:48:57.733Z,4.65
2023-01-10T00:51:27.470Z,4.62
2023-01-10T00:53:57.678Z,4.66
2023-01-10T00:56:27.677Z,4.73
2023-01-10T00:58:57.342Z,4.77
2023-01-10T01:01:27.310Z,4.81
2023-01-10T01:03:59.995Z,4.81
2023-01-10T01:06:27.920Z,4.76
2023-01-10T01:08:58.000Z,4.69
2023-01-10T01:11:27.865Z,4.68
2023-01-10T01:13:57.496Z,4.74
2023-01-10T01:16:27.357Z,4.78
2023-01-10T01:18:57.908Z,4.87
2023-01-10T01:21:28.253Z,4.77
2023-01-10T01:23:58.349Z,4.76
2023-01-10T01:26:28.169Z,4.77
2023-01-10T01:28:57.942Z,4.81
2023-01-10T01:31:27.642Z,4.71
2023-01-10T01:33:57.739Z,4.57
2023-01-10T01:36:28.905Z,4.44
2023-01-10T01:38:58.995Z,4.55
2023-01-10T01:41:47.622Z,4.66
2023-01-10T01:44:20.130Z,4.52
2023-01-10T01:47:07.849Z,4.44
2023-01-10T01:49:45.452Z,4.39
2023-01-10T01:52:35.043Z,4.42
2023-01-10T01:55:07.234Z,4.53
2023-01-10T01:57:38.490Z,4.53
2023-01-10T02:00:10.739Z,4.47
2023-01-10T02:03:02.069Z,4.53
2023-01-10T02:05:40.733Z,4.58
2023-01-10T02:08:13.980Z,4.51
2023-01-10T02:11:10.971Z,4.42
2023-01-10T02:13:46.568Z,4.46
2023-01-10T02:16:17.192Z,4.51
2023-01-10T02:18:47.473Z,4.34
2023-01-10T02:21:35.027Z,4.40
2023-01-10T02:24:23.000Z,4.45
2023-01-10T02:27:27.773Z,4.34
2023-01-10T02:30:31.069Z,4.37
2023-01-10T02:33:33.841Z,4.33
2023-01-10T02:36:39.694Z,4.46
2023-01-10T02:39:46.677Z,4.49
2023-01-10T02:42:42.158Z,4.48
2023-01-10T02:45:33.885Z,4.62
2023-01-10T02:48:04.269Z,4.58
2023-01-10T02:50:44.234Z,4.48
2023-01-10T02:53:24.508Z,4.50
2023-01-10T02:56:34.652Z,4.50
2023-01-10T02:59:35.151Z,4.42
2023-01-10T03:02:47.073Z,4.47
2023-01-10T03:06:06.375Z,4.54
2023-01-10T03:09:07.290Z,4.53
2023-01-10T03:11:46.601Z,4.58
2023-01-10T03:14:28.723Z,4.52
2023-01-10T03:17:09.147Z,4.52
2023-01-10T03:19:53.727Z,4.51
2023-01-10T03:22:30.876Z,4.48
2023-01-10T03:25:07.637Z,4.57
2023-01-10T03:28:05.633Z,4.55
2023-01-10T03:30:56.275Z,4.53
2023-01-10T03:33:32.756Z,4.62
2023-01-10T03:36:32.098Z,4.67
2023-01-10T03:39:35.669Z,4.65
2023-01-10T03:43:28.389Z,4.56
2023-01-10T03:46:27.828Z,4.68
2023-01-10T03:49:05.011Z,4.75
2023-01-10T03:51:39.743Z,4.76
2023-01-10T03:54:10.061Z,4.72
2023-01-10T03:56:52.154Z,4.64
2023-01-10T03:59:30.224Z,4.75
2023-01-10T04:02:00.376Z,4.65
2023-01-10T04:04:32.287Z,4.77
2023-01-10T04:07:02.268Z,4.65
2023-01-10T04:09:32.312Z,4.55
2023-01-10T04:12:02.834Z,4.53
2023-01-10T04:14:32.907Z,4.68
2023-01-10T04:17:01.368Z,4.73
2023-01-10T04:19:29.718Z,4.56
2023-01-10T04:21:58.132Z,4.61
2023-01-10T04:24:26.575Z,4.60
2023-01-10T04:26:55.243Z,4.54
2023-01-10T04:29:23.928Z,4.42
2023-01-10T04:31:52.272Z,4.42
2023-01-10T04:34:21.750Z,4.33
2023-01-10T04:36:50.815Z,4.22
2023-01-10T04:39:20.451Z,4.18
2023-01-10T04:41:48.927Z,4.06
2023-01-10T04:44:17.384Z,4.03
2023-01-10T04:46:45.776Z,4.19
2023-01-10T04:49:14.427Z,4.17
2023-01-10T04:51:43.000Z,4.16
2023-01-10T04:54:11.445Z,4.29
2023-01-10T04:56:40.129Z,4.26
2023-01-10T04:59:10.710Z,4.29
2023-01-10T05:01:40.893Z,4.22
2023-01-10T05:04:11.224Z,4.24
2023-01-10T05:06:41.462Z,4.21
2023-01-10T05:09:11.477Z,4.17
2023-01-10T05:11:41.629Z,4.28
2023-01-10T05:14:11.649Z,4.35
2023-01-10T05:16:41.675Z,4.32
2023-01-10T05:19:12.253Z,4.30
2023-01-10T05:21:42.265Z,4.23
2023-01-10T05:24:12.389Z,4.18
2023-01-10T05:26:42.391Z,4.15
2023-01-10T05:29:14.477Z,4.16
2023-01-10T05:31:44.588Z,4.10
2023-01-10T05:34:14.615Z,4.22
2023-01-10T05:36:44.613Z,4.18
2023-01-10T05:39:14.733Z,4.18
2023-01-10T05:41:44.965Z,4.17
2023-01-10T05:44:15.030Z,4.16
2023-01-10T05:46:45.137Z,4.21
2023-01-10T05:49:13.518Z,4.31
2023-01-10T05:51:42.464Z,4.44
2023-01-10T05:54:10.420Z,4.35
2023-01-10T05:56:38.926Z,4.42
2023-01-10T05:59:17.066Z,4.36
2023-01-10T06:01:57.292Z,4.32
2023-01-10T06:04:27.352Z,4.32
2023-01-10T06:06:57.391Z,4.36
2023-01-10T06:09:27.361Z,4.31
2023-01-10T06:11:57.413Z,4.31
2023-01-10T06:14:27.456Z,4.35
2023-01-10T06:16:58.301Z,4.38
2023-01-10T06:19:28.790Z,4.37
2023-01-10T06:21:59.273Z,4.41
2023-01-10T06:24:29.343Z,4.39
2023-01-10T06:26:59.418Z,4.63
2023-01-10T06:29:29.437Z,4.59
2023-01-10T06:31:59.668Z,4.53
2023-01-10T06:34:29.716Z,4.44
2023-01-10T06:36:59.691Z,4.53
2023-01-10T06:39:29.763Z,4.55
2023-01-10T06:42:00.672Z,4.52
2023-01-10T06:44:30.655Z,4.50
2023-01-10T06:47:00.684Z,4.49
2023-01-10T06:49:30.769Z,4.48
2023-01-10T06:52:00.796Z,4.42
2023-01-10T06:54:30.867Z,4.44
2023-01-10T06:57:00.904Z,4.44
2023-01-10T06:59:30.936Z,4.50
2023-01-10T07:02:01.122Z,4.65
2023-01-10T07:04:31.264Z,4.60
2023-01-10T07:07:01.368Z,4.48
2023-01-10T07:09:31.392Z,4.46
2023-01-10T07:12:01.408Z,4.51
2023-01-10T07:14:31.447Z,4.59
2023-01-10T07:17:01.457Z,4.47
2023-01-10T07:19:31.543Z,4.73
2023-01-10T07:22:01.673Z,4.63
2023-01-10T07:24:31.671Z,4.63
2023-01-10T07:27:01.682Z,4.64
2023-01-10T07:29:31.764Z,4.77
2023-01-10T07:32:01.927Z,4.71
2023-01-10T07:34:32.350Z,4.63
2023-01-10T07:37:02.672Z,4.60
2023-01-10T07:39:32.772Z,4.61
2023-01-10T07:42:02.787Z,4.60
2023-01-10T07:44:32.807Z,4.57
2023-01-10T07:47:03.340Z,4.58
2023-01-10T07:49:33.334Z,4.64
2023-01-10T07:52:03.431Z,4.63
2023-01-10T07:54:33.463Z,4.55
2023-01-10T07:57:02.865Z,4.63
2023-01-10T07:59:30.326Z,4.80
2023-01-10T08:01:58.690Z,4.80
2023-01-10T08:04:27.204Z,4.66
2023-01-10T08:06:55.759Z,4.57
2023-01-10T08:09:24.028Z,4.55
2023-01-10T08:11:52.463Z,4.62
2023-01-10T08:14:20.937Z,4.62
2023-01-10T08:16:49.284Z,4.61
2023-01-10T08:19:18.535Z,4.66
2023-01-10T08:21:46.271Z,4.71
2023-01-10T08:24:14.590Z,4.70
2023-01-10T08:26:43.001Z,4.73
2023-01-10T08:29:11.485Z,4.82
2023-01-10T08:31:41.977Z,4.90
2023-01-10T08:34:14.721Z,4.79
2023-01-10T08:36:45.108Z,4.78
2023-01-10T08:39:15.427Z,4.98
2023-01-10T08:41:45.438Z,5.03
2023-01-10T08:44:15.916Z,5.04
2023-01-10T08:46:46.127Z,5.01
2023-01-10T08:49:16.231Z,5.08
2023-01-10T08:51:46.324Z,5.05
2023-01-10T08:54:16.516Z,5.09
2023-01-10T08:56:46.521Z,5.24
2023-01-10T08:59:16.599Z,5.16
2023-01-10T09:01:46.723Z,5.47
2023-01-10T09:04:17.255Z,5.53
2023-01-10T09:06:47.248Z,5.45
2023-01-10T09:09:17.275Z,5.47
2023-01-10T09:11:47.298Z,5.47
2023-01-10T09:14:17.312Z,5.46
2023-01-10T09:16:47.381Z,5.38
2023-01-10T09:19:18.300Z,5.56
2023-01-10T09:21:48.304Z,5.61
2023-01-10T09:24:18.301Z,5.85
2023-01-10T09:26:48.333Z,6.06
2023-01-10T09:29:18.313Z,6.07
2023-01-10T09:31:48.414Z,5.92
2023-01-10T09:34:18.407Z,5.84
2023-01-10T09:36:47.451Z,5.71
2023-01-10T09:39:15.279Z,5.46
2023-01-10T09:42:44.388Z,5.37
2023-01-10T09:45:59.733Z,5.35
2023-01-10T09:49:00.023Z,5.59
2023-01-10T09:51:43.499Z,5.64
2023-01-10T09:54:41.566Z,5.55
2023-01-10T09:57:21.555Z,5.63
2023-01-10T09:59:54.509Z,5.65
2023-01-10T10:02:39.525Z,5.56
2023-01-10T10:05:26.758Z,5.64
2023-01-10T10:08:05.074Z,5.44
2023-01-10T10:10:56.664Z,5.56
2023-01-10T10:13:55.416Z,5.55
2023-01-10T10:16:58.512Z,5.67
2023-01-10T10:20:02.178Z,5.64
2023-01-10T10:23:18.181Z,5.79
2023-01-10T10:26:35.849Z,6.18
2023-01-10T10:29:54.923Z,6.17
2023-01-10T10:32:39.393Z,6.13
2023-01-10T10:35:35.526Z,6.16
2023-01-10T10:38:29.958Z,6.06
2023-01-10T10:41:02.400Z,6.05
2023-01-10T10:43:39.627Z,6.07
2023-01-10T10:46:20.113Z,6.08
2023-01-10T10:49:26.514Z,6.26
2023-01-10T10:51:57.374Z,6.16
2023-01-10T10:54:27.867Z,6.07
2023-01-10T10:56:58.486Z,6.18
2023-01-10T10:59:28.869Z,6.20
2023-01-10T11:01:59.231Z,6.32
2023-01-10T11:04:32.378Z,6.38
2023-01-10T11:07:02.379Z,6.36
2023-01-10T11:10:04.886Z,6.41
2023-01-10T11:12:45.719Z,6.41
2023-01-10T11:15:48.561Z,6.38
2023-01-10T11:18:26.106Z,6.50
2023-01-10T11:21:08.736Z,6.66
2023-01-10T11:23:54.427Z,6.83
2023-01-10T11:26:37.251Z,6.59
2023-01-10T11:29:39.734Z,6.57
2023-01-10T11:32:27.654Z,6.36
2023-01-10T11:35:20.538Z,6.30
2023-01-10T11:38:30.054Z,6.46
2023-01-10T11:41:25.310Z,6.36
2023-01-10T11:44:27.980Z,6.51
2023-01-10T11:47:14.802Z,6.58
2023-01-10T11:49:45.247Z,6.73
2023-01-10T11:52:30.507Z,6.82
2023-01-10T11:55:01.667Z,6.77
2023-01-10T11:57:33.839Z,6.75
2023-01-10T12:00:10.965Z,6.80
2023-01-10T12:02:45.017Z,6.79
2023-01-10T12:05:23.827Z,6.77
2023-01-10T12:08:10.685Z,6.78
2023-01-10T12:10:39.491Z,6.80
2023-01-10T12:13:17.755Z,6.85
2023-01-10T12:15:49.330Z,6.91
2023-01-10T12:18:19.712Z,7.04
2023-01-10T12:20:53.126Z,6.96
2023-01-10T12:23:28.605Z,7.03
2023-01-10T12:26:11.348Z,7.06
2023-01-10T12:28:58.730Z,6.96
2023-01-10T12:31:32.746Z,6.95
2023-01-10T12:34:20.394Z,6.81
2023-01-10T12:37:21.717Z,6.65
2023-01-10T12:40:11.495Z,6.47
2023-01-10T12:43:48.072Z,6.55
2023-01-10T12:47:12.895Z,6.61
2023-01-10T12:50:03.159Z,6.79
2023-01-10T12:53:05.881Z,6.92
2023-01-10T12:55:46.045Z,6.95
2023-01-10T12:58:36.259Z,6.93
2023-01-10T13:01:10.837Z,6.98
2023-01-10T13:03:42.975Z,6.93
2023-01-10T13:06:33.569Z,6.81
2023-01-10T13:09:27.680Z,6.76
2023-01-10T13:12:17.346Z,6.80
2023-01-10T13:15:05.105Z,6.87
2023-01-10T13:17:33.601Z,6.84
2023-01-10T13:20:21.763Z,6.80
2023-01-10T13:23:01.012Z,6.76
2023-01-10T13:25:39.507Z,6.69
2023-01-10T13:28:26.992Z,6.63
2023-01-10T13:31:02.410Z,6.65
2023-01-10T13:33:59.730Z,6.59
2023-01-10T13:36:41.438Z,6.52
2023-01-10T13:39:40.015Z,6.47
2023-01-10T13:42:49.088Z,6.47
2023-01-10T13:45:31.546Z,6.43
2023-01-10T13:48:27.593Z,6.44
2023-01-10T13:51:28.440Z,6.44
2023-01-10T13:54:15.859Z,6.41
2023-01-10T13:56:46.209Z,6.48
2023-01-10T13:59:46.393Z,6.55
2023-01-10T14:02:31.898Z,6.67
2023-01-10T14:05:07.564Z,6.63
2023-01-10T14:07:55.901Z,6.63
2023-01-10T14:10:33.133Z,6.51
2023-01-10T14:13:22.724Z,6.37
2023-01-10T14:15:53.209Z,6.26
2023-01-10T14:18:39.269Z,6.22
2023-01-10T14:21:27.287Z,6.08
2023-01-10T14:23:58.960Z,6.00
2023-01-10T14:26:44.130Z,6.04
2023-01-10T14:29:20.712Z,5.88
2023-01-10T14:31:53.505Z,5.77
2023-01-10T14:34:35.611Z,5.68
2023-01-10T14:37:29.373Z,5.66
2023-01-10T14:40:00.989Z,5.67
2023-01-10T14:42:31.337Z,5.75
2023-01-10T14:45:50.567Z,5.70
2023-01-10T14:48:40.399Z,5.78
2023-01-10T14:51:21.715Z,5.87
2023-01-10T14:54:12.456Z,5.86
2023-01-10T14:56:52.540Z,5.75
2023-01-10T14:59:38.014Z,5.64
2023-01-10T15:02:25.816Z,5.45
2023-01-10T15:05:10.387Z,5.31
2023-01-10T15:07:40.481Z,5.26
2023-01-10T15:10:34.146Z,5.25
2023-01-10T15:13:07.793Z,5.26
2023-01-10T15:15:41.178Z,5.14
2023-01-10T15:18:44.291Z,5.04
2023-01-10T15:21:20.743Z,5.02
2023-01-10T15:23:51.314Z,4.92
2023-01-10T15:26:33.544Z,4.81
2023-01-10T15:29:25.399Z,4.67
2023-01-10T15:32:08.313Z,4.53
2023-01-10T15:34:39.791Z,4.47
2023-01-10T15:37:26.660Z,4.40
2023-01-10T15:39:55.728Z,4.31
2023-01-10T15:42:24.560Z,4.32
2023-01-10T15:44:56.100Z,4.37
2023-01-10T15:47:42.808Z,4.42
2023-01-10T15:50:38.872Z,4.41
2023-01-10T15:53:12.061Z,4.45
2023-01-10T15:55:53.930Z,4.43
2023-01-10T15:58:36.672Z,4.41
2023-01-10T16:01:06.907Z,4.43
2023-01-10T16:03:51.450Z,4.46
2023-01-10T16:06:29.924Z,4.44
2023-01-10T16:09:09.062Z,4.58
2023-01-10T16:12:12.844Z,4.67
2023-01-10T16:14:42.979Z,4.62
2023-01-10T16:17:13.066Z,4.61
2023-01-10T16:19:43.074Z,4.61
2023-01-10T16:22:20.067Z,4.62
2023-01-10T16:24:52.508Z,4.51
2023-01-10T16:27:22.629Z,4.52
2023-01-10T16:29:53.625Z,4.49
2023-01-10T16:32:23.779Z,4.56
2023-01-10T16:34:53.502Z,4.54
2023-01-10T16:37:25.001Z,4.58
2023-01-10T16:39:56.778Z,4.55
2023-01-10T16:43:17.985Z,4.49
2023-01-10T16:45:59.884Z,4.59
2023-01-10T16:48:33.554Z,4.53
2023-01-10T16:51:28.684Z,4.55
2023-01-10T16:53:56.935Z,4.62
2023-01-10T16:56:29.634Z,4.56
2023-01-10T16:58:59.150Z,4.50
2023-01-10T17:01:43.521Z,4.32
2023-01-10T17:04:24.212Z,4.32
2023-01-10T17:06:54.484Z,4.41
2023-01-10T17:09:31.135Z,4.38
2023-01-10T17:12:18.098Z,4.31
2023-01-10T17:14:48.349Z,4.52
2023-01-10T17:17:18.406Z,4.44
2023-01-10T17:19:48.609Z,4.36
2023-01-10T17:22:18.876Z,4.20
2023-01-10T17:24:49.562Z,4.22
2023-01-10T17:27:19.142Z,4.26
2023-01-10T17:29:49.152Z,4.37
2023-01-10T17:51:00.008Z,3.88
2023-01-10T17:53:30.860Z,3.78
2023-01-10T17:56:01.825Z,3.65
2023-01-10T17:58:31.830Z,3.78
2023-01-10T18:01:02.057Z,3.72
2023-01-10T18:03:32.153Z,3.57
2023-01-10T18:06:00.542Z,3.56
2023-01-10T18:08:28.963Z,3.75
2023-01-10T18:11:02.030Z,3.75
2023-01-10T18:13:32.051Z,3.95
2023-01-10T18:16:03.892Z,3.79
2023-01-10T18:18:33.900Z,3.76
2023-01-10T18:21:05.399Z,3.79
2023-01-10T18:23:35.406Z,3.71
2023-01-10T18:26:09.247Z,3.67
2023-01-10T18:28:44.797Z,3.61
2023-01-10T18:31:18.842Z,3.61
2023-01-10T18:33:49.393Z,3.47
2023-01-10T18:36:24.344Z,3.46
2023-01-10T18:38:54.508Z,3.42
2023-01-10T18:41:24.542Z,3.32
2023-01-10T18:43:54.574Z,3.27
2023-01-10T18:46:25.286Z,3.13
2023-01-10T18:48:55.519Z,3.45
2023-01-10T18:51:25.617Z,3.54
2023-01-10T18:53:55.722Z,3.48
2023-01-10T18:56:24.084Z,3.46
2023-01-10T18:58:52.581Z,3.34
2023-01-10T19:01:22.301Z,3.30
2023-01-10T19:03:52.531Z,3.12
2023-01-10T19:06:22.906Z,3.08
2023-01-10T19:08:52.980Z,3.10
2023-01-10T19:11:23.626Z,3.04
2023-01-10T19:13:54.158Z,2.98
2023-01-10T19:16:31.961Z,2.95
2023-01-10T19:19:09.396Z,3.02
2023-01-10T19:21:40.054Z,2.84
2023-01-10T19:24:29.794Z,2.69
2023-01-10T19:26:59.855Z,2.82
2023-01-10T19:29:33.449Z,2.80
2023-01-10T19:32:04.336Z,2.81
2023-01-10T19:34:34.694Z,2.65
2023-01-10T19:37:04.748Z,2.70
2023-01-10T19:39:36.294Z,2.63
2023-01-10T19:42:12.053Z,2.57
2023-01-10T19:44:43.871Z,2.50
2023-01-10T19:47:15.663Z,2.53
2023-01-10T19:49:45.350Z,2.63
2023-01-10T19:52:13.730Z,2.60
2023-01-10T19:54:42.205Z,2.49
2023-01-10T19:57:10.645Z,2.47
2023-01-10T19:59:41.633Z,2.47
2023-01-10T20:02:13.770Z,2.51
2023-01-10T20:04:43.921Z,2.46
2023-01-10T20:07:13.931Z,2.41
2023-01-10T20:09:43.924Z,2.65
2023-01-10T20:12:16.685Z,2.61
2023-01-10T20:14:45.371Z,2.57
2023-01-10T20:17:13.797Z,2.70
2023-01-10T20:19:42.255Z,2.54
2023-01-10T20:22:11.003Z,2.77
2023-01-10T20:24:39.130Z,2.61
2023-01-10T20:27:09.495Z,2.57
2023-01-10T20:29:42.532Z,2.46
2023-01-10T20:32:14.918Z,2.46
2023-01-10T20:34:45.452Z,2.43
2023-01-10T20:37:15.558Z,2.39
2023-01-10T20:39:46.678Z,2.43
2023-01-10T20:42:16.714Z,2.33
2023-01-10T20:44:46.721Z,2.36
2023-01-10T20:47:17.461Z,2.26
2023-01-10T20:49:47.476Z,2.15
2023-01-10T20:52:17.496Z,2.13
2023-01-10T20:54:47.607Z,2.10
2023-01-10T20:57:17.635Z,2.31
2023-01-10T20:59:47.716Z,2.31
2023-01-10T21:02:17.950Z,2.33
2023-01-10T21:04:50.388Z,2.32
2023-01-10T21:07:20.654Z,2.41
2023-01-10T21:09:50.301Z,2.19
2023-01-10T21:12:23.250Z,2.11
2023-01-10T21:14:53.992Z,2.26
2023-01-10T21:17:24.025Z,2.16
2023-01-10T21:19:52.493Z,2.28
2023-01-10T21:22:20.857Z,2.21
2023-01-10T21:24:49.974Z,2.13
2023-01-10T21:27:17.977Z,2.23
2023-01-10T21:29:46.267Z,2.27
2023-01-10T21:32:14.767Z,2.21
2023-01-10T21:34:43.320Z,2.17
2023-01-10T21:37:11.743Z,2.32
2023-01-10T21:39:40.093Z,2.19
2023-01-10T21:42:31.809Z,2.22
2023-01-10T21:45:02.185Z,2.42
2023-01-10T21:47:34.387Z,2.43
2023-01-10T21:50:07.694Z,2.23
2023-01-10T21:52:38.925Z,2.32
2023-01-10T21:55:13.122Z,2.39
2023-01-10T21:57:42.805Z,2.39
2023-01-10T22:00:13.546Z,2.34
2023-01-10T22:02:43.187Z,2.44
2023-01-10T22:05:11.398Z,2.47
2023-01-10T22:07:40.909Z,2.56
2023-01-10T22:10:12.262Z,2.56
2023-01-10T22:12:41.882Z,2.70
2023-01-10T22:15:12.357Z,2.54
2023-01-10T22:17:42.094Z,2.48
2023-01-10T22:20:12.602Z,2.72
2023-01-10T22:22:42.316Z,2.43
2023-01-10T22:25:12.063Z,2.40
2023-01-10T22:27:44.192Z,2.50
2023-01-10T22:30:12.686Z,2.72
2023-01-10T22:32:42.372Z,2.69
2023-01-10T22:35:15.163Z,2.71
2023-01-10T22:37:43.939Z,2.61
2023-01-10T22:40:13.699Z,2.73
2023-01-10T22:42:43.461Z,2.60
2023-01-10T22:45:13.231Z,2.77
2023-01-10T22:47:43.032Z,2.70
2023-01-10T22:50:12.808Z,2.85
2023-01-10T22:52:42.616Z,2.85
2023-01-10T22:55:12.357Z,2.71
2023-01-10T22:57:47.099Z,2.78
2023-01-10T23:00:21.461Z,2.72
2023-01-10T23:02:50.191Z,2.92
2023-01-10T23:05:20.105Z,2.93
2023-01-10T23:07:51.546Z,2.83
2023-01-10T23:10:30.126Z,2.81
2023-01-10T23:13:02.318Z,2.83
2023-01-10T23:15:32.301Z,2.93
2023-01-10T23:18:02.262Z,2.91
2023-01-10T23:20:34.297Z,3.04
2023-01-10T23:23:04.008Z,3.05
2023-01-10T23:25:33.774Z,3.09
2023-01-10T23:28:03.762Z,3.13
2023-01-10T23:30:33.559Z,2.93
2023-01-10T23:33:03.756Z,2.87
2023-01-10T23:35:33.515Z,2.95
2023-01-10T23:38:03.333Z,2.82
2023-01-10T23:40:33.101Z,3.00
2023-01-10T23:43:02.916Z,2.78
2023-01-10T23:45:33.493Z,3.00
2023-01-10T23:48:05.840Z,3.16
2023-01-10T23:50:34.841Z,3.17
2023-01-10T23:53:06.549Z,3.13
2023-01-10T23:55:35.940Z,3.26
2023-01-10T23:58:06.060Z,3.13
